Time;durP1;ratioP1;P1;durP2;ratioP2;P2;SDS_P1;SDS_P2;PMS_P1;PMS_P2;Temp;Humidity;BMP_temperature;BMP_pressure;BME280_temperature;BME280_humidity;BME280_pressure;Samples;Min_cycle;Max_cycle;Signal;HPM_P1;HPM_P2
2021/06/23 00:01:52;;;;;;;11.27;7.20;;;13.80;99.90;;;;;;5078750;28;20200;-80
2021/06/23 00:04:18;;;;;;;11.50;7.20;;;13.80;99.90;;;;;;5076456;28;20168;-80
2021/06/23 00:06:43;;;;;;;12.90;7.90;;;13.90;99.90;;;;;;5077855;28;20173;-79
2021/06/23 00:09:09;;;;;;;11.53;6.80;;;13.80;99.90;;;;;;5077271;28;20160;-80
2021/06/23 00:11:44;;;;;;;10.80;6.50;;;13.80;99.90;;;;;;5077547;28;20267;-80
2021/06/23 00:14:10;;;;;;;14.20;6.93;;;13.70;99.90;;;;;;5076554;28;20253;-80
2021/06/23 00:16:36;;;;;;;14.77;6.00;;;13.70;99.90;;;;;;5078309;28;20176;-80
2021/06/23 00:19:02;;;;;;;8.20;4.90;;;13.70;99.90;;;;;;5078476;28;20169;-80
2021/06/23 00:21:27;;;;;;;10.47;4.97;;;13.60;99.90;;;;;;5076430;28;20176;-79
2021/06/23 00:23:53;;;;;;;9.67;5.07;;;13.60;99.90;;;;;;5076909;28;20180;-80
2021/06/23 00:26:19;;;;;;;9.47;4.93;;;13.60;99.90;;;;;;5077705;28;20214;-79
2021/06/23 00:28:45;;;;;;;7.83;4.20;;;13.60;99.90;;;;;;5077485;28;20694;-81
2021/06/23 00:31:11;;;;;;;9.70;4.30;;;13.70;99.90;;;;;;5076499;28;20214;-81
2021/06/23 00:33:37;;;;;;;8.40;3.90;;;13.60;99.90;;;;;;5076602;28;20172;-79
2021/06/23 00:36:03;;;;;;;6.83;3.60;;;13.60;99.90;;;;;;5077856;28;20595;-79
2021/06/23 00:38:29;;;;;;;9.17;3.77;;;13.50;99.90;;;;;;5076666;28;20262;-80
2021/06/23 00:40:55;;;;;;;7.03;3.90;;;13.50;99.90;;;;;;5077854;28;20628;-80
2021/06/23 00:43:22;;;;;;;8.60;4.10;;;13.50;99.90;;;;;;5077463;28;20250;-80
2021/06/23 00:45:49;;;;;;;9.07;3.70;;;13.50;99.90;;;;;;5076998;28;20187;-80
2021/06/23 00:48:21;;;;;;;11.63;3.90;;;13.60;99.90;;;;;;5076042;28;20192;-80
2021/06/23 00:50:48;;;;;;;9.77;4.10;;;13.50;99.90;;;;;;5077348;28;20330;-80
2021/06/23 00:53:15;;;;;;;9.23;3.67;;;13.50;99.90;;;;;;5078613;28;20164;-81
2021/06/23 00:55:40;;;;;;;9.50;3.63;;;13.50;99.90;;;;;;5083346;28;20628;-80
2021/06/23 00:58:06;;;;;;;11.97;4.30;;;13.50;99.90;;;;;;5084203;28;20199;-80
2021/06/23 01:00:34;;;;;;;10.70;4.37;;;13.50;99.90;;;;;;5095628;28;20202;-77
2021/06/23 01:03:04;;;;;;;6.93;4.23;;;13.50;99.90;;;;;;5092139;28;20264;-79
2021/06/23 01:05:30;;;;;;;8.50;3.67;;;13.40;99.90;;;;;;5087021;28;20167;-80
2021/06/23 01:07:56;;;;;;;11.37;4.10;;;13.40;99.90;;;;;;5083744;28;20223;-79
2021/06/23 01:10:22;;;;;;;8.20;4.00;;;13.40;99.90;;;;;;5077082;28;20538;-79
2021/06/23 01:13:35;;;;;;;8.17;3.60;;;13.50;99.90;;;;;;5080190;28;20180;-80
2021/06/23 01:16:04;;;;;;;8.13;3.93;;;13.40;99.90;;;;;;5058264;28;20542;-80
2021/06/23 01:18:34;;;;;;;12.53;4.67;;;13.40;99.90;;;;;;5075638;28;20179;-79
2021/06/23 01:20:59;;;;;;;11.30;4.87;;;13.40;99.90;;;;;;5066341;28;20185;-80
2021/06/23 01:23:25;;;;;;;13.10;4.63;;;13.40;99.90;;;;;;5075506;28;20219;-80
2021/06/23 01:25:51;;;;;;;12.83;4.70;;;13.30;99.90;;;;;;5076014;28;20188;-80
2021/06/23 01:28:18;;;;;;;8.97;4.63;;;13.20;99.90;;;;;;5076305;28;20656;-79
2021/06/23 01:30:44;;;;;;;9.97;5.00;;;13.10;99.90;;;;;;5077562;28;20190;-79
2021/06/23 01:33:13;;;;;;;11.00;5.67;;;13.10;99.90;;;;;;5079180;28;20160;-80
2021/06/23 01:35:38;;;;;;;13.03;4.90;;;13.00;99.90;;;;;;5075933;28;20183;-80
2021/06/23 01:38:05;;;;;;;15.13;6.17;;;13.00;99.90;;;;;;5076902;28;20169;-80
2021/06/23 01:40:31;;;;;;;9.93;5.53;;;13.00;99.90;;;;;;5076054;28;20210;-80
2021/06/23 01:42:58;;;;;;;14.60;5.47;;;13.10;99.90;;;;;;5076089;28;20199;-79
2021/06/23 01:45:24;;;;;;;12.20;6.00;;;13.00;99.90;;;;;;5077074;28;20168;-80
2021/06/23 01:47:50;;;;;;;7.30;6.00;;;13.00;99.90;;;;;;5075346;28;20214;-80
2021/06/23 01:50:16;;;;;;;10.90;6.50;;;13.00;99.90;;;;;;5075972;28;20567;-79
2021/06/23 01:52:43;;;;;;;10.10;6.50;;;13.00;99.90;;;;;;5083392;28;20182;-79
2021/06/23 01:55:26;;;;;;;12.53;6.83;;;13.00;99.90;;;;;;5081268;28;20183;-78
2021/06/23 01:58:02;;;;;;;14.23;7.17;;;13.00;99.90;;;;;;5077507;28;20218;-79
2021/06/23 02:00:36;;;;;;;10.03;7.00;;;13.00;99.90;;;;;;5076905;28;20628;-79
2021/06/23 02:03:14;;;;;;;15.63;7.33;;;13.00;99.90;;;;;;5077478;28;20265;-80
2021/06/23 02:06:05;;;;;;;12.73;7.70;;;13.00;99.90;;;;;;5077300;28;20160;-79
2021/06/23 02:08:51;;;;;;;14.73;8.03;;;12.90;99.90;;;;;;5072867;28;20204;-80
2021/06/23 02:11:39;;;;;;;16.57;8.90;;;12.80;99.90;;;;;;5075710;28;20164;-79
2021/06/23 02:14:18;;;;;;;12.03;8.50;;;12.80;99.90;;;;;;5075062;28;20617;-80
2021/06/23 02:16:47;;;;;;;14.40;8.70;;;12.80;99.90;;;;;;5075919;28;20238;-79
2021/06/23 02:19:13;;;;;;;13.10;9.10;;;12.80;99.90;;;;;;5077372;28;20177;-79
2021/06/23 02:21:39;;;;;;;12.07;9.13;;;12.80;99.90;;;;;;5077421;28;20211;-80
2021/06/23 02:24:06;;;;;;;16.83;10.17;;;12.80;99.90;;;;;;5076216;28;20652;-80
2021/06/23 02:26:33;;;;;;;12.93;9.27;;;12.90;99.90;;;;;;5074372;28;20217;-80
2021/06/23 02:28:59;;;;;;;18.57;9.53;;;12.90;99.90;;;;;;5074658;28;20187;-80
2021/06/23 02:31:28;;;;;;;12.43;9.70;;;12.90;99.90;;;;;;5075097;28;20168;-80
2021/06/23 02:33:55;;;;;;;14.43;10.23;;;13.00;99.90;;;;;;5074379;28;20247;-80
2021/06/23 02:36:22;;;;;;;17.43;10.43;;;13.00;99.90;;;;;;5075479;28;20269;-80
2021/06/23 02:38:48;;;;;;;16.83;10.87;;;13.00;99.90;;;;;;5075861;28;20196;-79
2021/06/23 02:41:16;;;;;;;14.40;11.40;;;13.10;99.90;;;;;;5074590;28;20176;-80
2021/06/23 02:43:42;;;;;;;16.03;11.70;;;13.10;99.90;;;;;;5074204;28;20208;-81
2021/06/23 02:46:08;;;;;;;14.70;10.13;;;13.10;99.90;;;;;;5074694;28;20192;-80
2021/06/23 02:48:34;;;;;;;15.63;10.87;;;13.10;99.90;;;;;;5073122;28;20644;-78
2021/06/23 02:51:02;;;;;;;20.83;11.17;;;13.10;99.90;;;;;;5073622;28;20192;-78
2021/06/23 02:53:29;;;;;;;15.73;10.47;;;13.10;99.90;;;;;;5073796;28;20184;-80
2021/06/23 02:55:56;;;;;;;14.20;10.77;;;13.10;99.90;;;;;;5073984;28;20242;-80
2021/06/23 02:58:22;;;;;;;14.63;11.13;;;13.00;99.90;;;;;;5075306;28;20176;-80
2021/06/23 03:00:47;;;;;;;16.13;11.63;;;13.00;99.90;;;;;;5075538;28;20616;-79
2021/06/23 03:03:13;;;;;;;21.50;11.53;;;13.00;99.90;;;;;;5075411;28;20204;-79
2021/06/23 03:05:39;;;;;;;15.53;12.13;;;12.90;99.90;;;;;;5073168;28;20164;-79
2021/06/23 03:08:06;;;;;;;15.37;12.07;;;12.90;99.90;;;;;;5074367;28;20198;-80
2021/06/23 03:10:32;;;;;;;15.00;12.10;;;12.90;99.90;;;;;;5074063;28;20160;-79
2021/06/23 03:12:57;;;;;;;20.73;13.43;;;12.80;99.90;;;;;;5074519;28;20279;-79
2021/06/23 03:15:23;;;;;;;17.27;11.40;;;12.90;99.90;;;;;;5073534;28;20183;-78
2021/06/23 03:17:49;;;;;;;20.40;14.07;;;13.00;99.90;;;;;;5073123;28;20165;-79
2021/06/23 03:20:15;;;;;;;19.13;13.53;;;12.90;99.90;;;;;;5073481;28;20632;-79
2021/06/23 03:22:41;;;;;;;17.67;13.53;;;12.90;99.90;;;;;;5073313;28;20239;-79
2021/06/23 03:25:07;;;;;;;19.00;13.90;;;12.90;99.90;;;;;;5073016;28;20179;-79
2021/06/23 03:27:32;;;;;;;16.67;13.77;;;12.80;99.90;;;;;;5072371;28;20226;-80
2021/06/23 03:29:58;;;;;;;17.90;14.93;;;12.90;99.90;;;;;;5073279;28;20164;-79
2021/06/23 03:32:24;;;;;;;18.73;15.67;;;12.80;99.90;;;;;;5073979;28;20165;-81
2021/06/23 03:34:49;;;;;;;18.10;16.30;;;12.80;99.90;;;;;;5073840;28;20252;-79
2021/06/23 03:37:15;;;;;;;19.43;14.23;;;12.80;99.90;;;;;;5072672;28;20643;-79
2021/06/23 03:39:41;;;;;;;22.17;15.97;;;12.70;99.90;;;;;;5072928;28;20197;-79
2021/06/23 03:42:07;;;;;;;18.67;14.83;;;12.80;99.90;;;;;;5073522;28;20542;-80
2021/06/23 03:44:33;;;;;;;18.20;14.30;;;12.70;99.90;;;;;;5072257;28;20265;-80
2021/06/23 03:47:01;;;;;;;21.23;15.03;;;12.80;99.90;;;;;;5073859;28;20196;-80
2021/06/23 03:49:27;;;;;;;21.90;13.90;;;12.80;99.90;;;;;;5073800;28;20175;-79
2021/06/23 03:51:53;;;;;;;17.73;13.57;;;12.80;99.90;;;;;;5073741;28;20275;-81
2021/06/23 03:54:18;;;;;;;18.80;13.50;;;12.80;99.90;;;;;;5073797;28;20668;-80
2021/06/23 03:56:44;;;;;;;16.93;12.90;;;12.80;99.90;;;;;;5073030;28;20173;-79
2021/06/23 03:59:09;;;;;;;18.13;12.97;;;12.80;99.90;;;;;;5072636;28;20175;-80
2021/06/23 04:01:35;;;;;;;18.23;12.17;;;12.90;99.90;;;;;;5074242;28;20584;-80
2021/06/23 04:04:01;;;;;;;17.40;13.07;;;12.90;99.90;;;;;;5073864;28;20255;-80
2021/06/23 04:06:31;;;;;;;18.97;13.27;;;13.00;99.90;;;;;;5077030;28;20218;-80
2021/06/23 04:08:56;;;;;;;14.50;12.23;;;13.00;99.90;;;;;;5074386;28;20175;-79
2021/06/23 04:11:22;;;;;;;14.13;11.93;;;13.00;99.90;;;;;;5074377;28;20252;-80
2021/06/23 04:13:48;;;;;;;18.43;13.53;;;13.00;99.90;;;;;;5073921;28;20628;-79
2021/06/23 04:16:13;;;;;;;18.33;13.23;;;13.00;99.90;;;;;;5074590;28;20180;-80
2021/06/23 04:18:40;;;;;;;19.67;13.03;;;13.10;99.90;;;;;;5073282;28;20164;-80
2021/06/23 04:21:06;;;;;;;19.10;14.53;;;13.00;99.90;;;;;;5073715;28;20164;-81
2021/06/23 04:23:32;;;;;;;18.97;14.50;;;13.10;99.90;;;;;;5072470;28;20577;-79
2021/06/23 04:25:58;;;;;;;19.40;15.70;;;13.10;99.90;;;;;;5074290;28;20183;-79
2021/06/23 04:28:23;;;;;;;17.60;15.30;;;13.20;99.90;;;;;;5071985;28;20180;-79
2021/06/23 04:30:49;;;;;;;20.50;16.00;;;13.20;99.90;;;;;;5074027;28;20247;-79
2021/06/23 04:33:15;;;;;;;20.47;15.27;;;13.20;99.90;;;;;;5072880;28;20210;-80
2021/06/23 04:35:41;;;;;;;22.60;15.97;;;13.20;99.90;;;;;;5074337;28;20546;-79
2021/06/23 04:38:06;;;;;;;19.90;14.73;;;13.20;99.90;;;;;;5079735;28;20168;-80
2021/06/23 04:40:32;;;;;;;21.40;15.23;;;13.30;99.90;;;;;;5100130;28;20168;-80
2021/06/23 04:42:58;;;;;;;20.57;15.03;;;13.30;99.90;;;;;;5096590;28;20200;-80
2021/06/23 04:45:23;;;;;;;20.83;16.17;;;13.30;99.90;;;;;;5091648;28;20180;-79
2021/06/23 04:47:49;;;;;;;20.70;15.57;;;13.40;99.90;;;;;;5096083;28;20184;-79
2021/06/23 04:50:15;;;;;;;20.07;14.57;;;13.30;99.90;;;;;;5095280;28;20192;-80
2021/06/23 04:52:40;;;;;;;18.27;14.83;;;13.30;99.90;;;;;;5093018;28;20183;-79
2021/06/23 04:55:16;;;;;;;19.57;15.67;;;13.40;99.90;;;;;;5083219;28;20173;-80
2021/06/23 04:57:44;;;;;;;20.23;14.60;;;13.40;99.90;;;;;;5083737;28;20149;-80
2021/06/23 05:00:14;;;;;;;19.53;14.73;;;13.40;99.90;;;;;;5081505;28;20199;-79
2021/06/23 05:02:40;;;;;;;17.33;14.00;;;13.30;99.90;;;;;;5080245;28;20211;-80
2021/06/23 05:05:06;;;;;;;17.97;14.03;;;13.30;99.90;;;;;;5078404;28;20168;-79
2021/06/23 05:07:35;;;;;;;16.70;14.23;;;13.30;99.90;;;;;;5078684;28;20176;-80
2021/06/23 05:10:00;;;;;;;15.90;14.30;;;13.30;99.90;;;;;;5075304;28;20196;-79
2021/06/23 05:12:29;;;;;;;18.37;14.67;;;13.20;99.90;;;;;;5078283;28;20541;-80
2021/06/23 05:14:58;;;;;;;20.43;14.47;;;13.30;99.90;;;;;;5075687;28;20180;-80
2021/06/23 05:17:25;;;;;;;16.50;14.10;;;13.40;99.90;;;;;;5077672;28;20632;-80
2021/06/23 05:19:51;;;;;;;17.47;13.70;;;13.40;99.90;;;;;;5076375;28;20535;-79
2021/06/23 05:22:16;;;;;;;17.93;14.20;;;13.40;99.90;;;;;;5077128;28;20200;-79
2021/06/23 05:24:42;;;;;;;17.67;14.40;;;13.50;99.90;;;;;;5075025;28;20180;-80
2021/06/23 05:27:10;;;;;;;16.70;13.10;;;13.40;99.90;;;;;;5075961;28;20166;-81
2021/06/23 05:29:36;;;;;;;20.73;14.00;;;13.30;99.90;;;;;;5077742;28;20179;-80
2021/06/23 05:32:02;;;;;;;17.10;13.33;;;13.30;99.90;;;;;;5078381;28;20168;-79
2021/06/23 05:34:29;;;;;;;19.33;14.20;;;13.30;99.90;;;;;;5083684;28;20168;-79
2021/06/23 05:36:58;;;;;;;18.03;13.67;;;13.30;99.90;;;;;;5091185;28;20263;-81
2021/06/23 05:39:25;;;;;;;18.50;15.17;;;13.30;99.90;;;;;;5084701;28;20176;-78
2021/06/23 05:41:50;;;;;;;16.90;14.87;;;13.30;99.90;;;;;;5086910;28;20294;-79
2021/06/23 05:44:16;;;;;;;17.30;14.73;;;13.20;99.90;;;;;;5090748;28;20620;-80
2021/06/23 05:46:42;;;;;;;17.80;13.47;;;13.20;99.90;;;;;;5076795;28;20200;-80
2021/06/23 05:49:08;;;;;;;18.40;13.67;;;13.20;99.90;;;;;;5076694;28;20569;-80
2021/06/23 05:51:35;;;;;;;14.67;13.23;;;13.20;99.90;;;;;;5077268;28;20199;-80
2021/06/23 05:54:01;;;;;;;16.40;14.77;;;13.20;99.90;;;;;;5076294;28;20183;-81
2021/06/23 05:56:27;;;;;;;17.70;15.63;;;13.10;99.90;;;;;;5075055;28;20180;-83
2021/06/23 05:58:54;;;;;;;19.03;14.30;;;13.10;99.90;;;;;;5074525;28;20620;-81
2021/06/23 06:01:20;;;;;;;19.67;14.87;;;13.20;99.90;;;;;;5075088;28;20172;-80
2021/06/23 06:03:46;;;;;;;17.00;15.20;;;13.20;99.90;;;;;;5073633;28;20218;-84
2021/06/23 06:06:11;;;;;;;16.27;14.30;;;13.40;99.90;;;;;;5075637;28;20681;-82
2021/06/23 06:08:37;;;;;;;16.67;14.80;;;13.20;99.90;;;;;;5074294;28;20221;-81
2021/06/23 06:11:03;;;;;;;18.17;14.43;;;13.30;99.90;;;;;;5075238;28;20172;-81
2021/06/23 06:13:28;;;;;;;20.80;15.13;;;13.40;99.90;;;;;;5074329;28;20610;-80
2021/06/23 06:15:54;;;;;;;21.67;15.13;;;13.40;99.90;;;;;;5074185;28;20176;-79
2021/06/23 06:18:23;;;;;;;18.87;15.07;;;13.50;99.90;;;;;;5075947;28;20192;-80
2021/06/23 06:20:49;;;;;;;17.00;14.37;;;13.50;99.90;;;;;;5075904;28;20243;-80
2021/06/23 06:23:15;;;;;;;16.90;14.70;;;13.40;99.90;;;;;;5076321;28;20243;-81
2021/06/23 06:25:40;;;;;;;17.00;13.53;;;13.30;99.90;;;;;;5074287;28;20173;-79
2021/06/23 06:28:06;;;;;;;16.60;13.47;;;13.30;99.90;;;;;;5072738;28;20184;-80
2021/06/23 06:30:32;;;;;;;16.57;13.53;;;13.30;99.90;;;;;;5084450;28;20301;-83
2021/06/23 06:32:57;;;;;;;24.67;13.63;;;13.30;99.90;;;;;;5094947;28;20247;-82
2021/06/23 06:35:23;;;;;;;14.23;12.13;;;13.40;99.90;;;;;;5094162;28;20198;-82
2021/06/23 06:37:49;;;;;;;15.63;12.00;;;13.30;99.90;;;;;;5098578;28;20250;-83
2021/06/23 06:40:16;;;;;;;19.30;11.70;;;13.20;99.90;;;;;;5095793;28;20168;-83
2021/06/23 06:42:41;;;;;;;16.83;12.33;;;13.30;99.90;;;;;;5094858;28;20203;-83
2021/06/23 06:45:09;;;;;;;18.33;12.83;;;13.60;99.90;;;;;;5096412;28;20203;-81
2021/06/23 06:47:34;;;;;;;15.90;12.23;;;13.50;99.90;;;;;;5094046;28;20620;-85
2021/06/23 06:50:00;;;;;;;18.27;12.43;;;13.60;99.90;;;;;;5093281;28;20179;-81
2021/06/23 06:52:26;;;;;;;14.90;12.37;;;13.50;99.90;;;;;;5098253;28;20166;-80
2021/06/23 06:54:52;;;;;;;19.10;12.73;;;13.60;99.90;;;;;;5116914;28;20175;-81
2021/06/23 06:57:17;;;;;;;16.23;11.23;;;13.70;99.90;;;;;;5100706;28;20175;-81
2021/06/23 06:59:46;;;;;;;18.40;11.53;;;13.60;99.90;;;;;;5094783;28;20175;-81
2021/06/23 07:02:12;;;;;;;14.23;10.83;;;13.60;99.90;;;;;;5096241;28;20306;-79
2021/06/23 07:04:37;;;;;;;15.33;11.37;;;13.60;99.90;;;;;;5096179;28;20194;-80
2021/06/23 07:07:04;;;;;;;15.90;11.60;;;13.60;99.90;;;;;;5096923;28;20582;-80
2021/06/23 07:09:30;;;;;;;16.30;11.23;;;13.70;99.90;;;;;;5100949;28;20206;-82
2021/06/23 07:11:56;;;;;;;17.63;10.87;;;13.80;99.90;;;;;;5099964;28;20538;-81
2021/06/23 07:14:22;;;;;;;16.07;11.33;;;13.80;99.90;;;;;;5100775;28;20164;-81
2021/06/23 07:16:48;;;;;;;15.80;10.83;;;13.90;99.90;;;;;;5100262;28;20201;-81
2021/06/23 07:19:14;;;;;;;13.53;10.30;;;13.90;99.90;;;;;;5096170;28;20168;-80
2021/06/23 07:21:43;;;;;;;16.90;10.83;;;13.90;99.90;;;;;;5094507;28;20172;-81
2021/06/23 07:24:09;;;;;;;11.50;10.23;;;13.90;99.90;;;;;;5094780;28;20195;-80
2021/06/23 07:26:35;;;;;;;18.10;11.57;;;14.00;99.90;;;;;;5094779;28;20176;-80
2021/06/23 07:29:03;;;;;;;15.67;11.73;;;14.10;99.90;;;;;;5093419;28;20176;-81
2021/06/23 07:31:43;;;;;;;16.03;11.33;;;14.20;99.90;;;;;;5094128;28;20167;-79
2021/06/23 07:36:47;;;;;;;13.33;11.70;;;14.30;99.40;;;;;;5094757;28;20712;-82
2021/06/23 07:39:15;;;;;;;17.67;11.83;;;14.20;99.50;;;;;;5100145;28;20258;-80
2021/06/23 07:41:43;;;;;;;13.70;10.77;;;14.10;99.70;;;;;;5096413;28;20179;-82
2021/06/23 07:44:12;;;;;;;16.60;10.77;;;14.10;99.10;;;;;;5093801;28;20168;-82
2021/06/23 07:46:41;;;;;;;14.10;8.53;;;14.10;98.90;;;;;;5107859;28;20158;-80
2021/06/23 07:49:09;;;;;;;12.97;10.17;;;14.00;97.60;;;;;;5107556;28;20277;-79
2021/06/23 07:54:19;;;;;;;15.17;10.27;;;14.10;97.70;;;;;;5102670;28;20228;-79
2021/06/23 08:10:25;;;;;;;17.87;9.70;;;14.60;96.50;;;;;;5072752;28;20175;-82
2021/06/23 08:12:59;;;;;;;15.13;11.17;;;14.50;95.60;;;;;;5102081;28;20263;-82
2021/06/23 08:15:28;;;;;;;17.13;11.17;;;14.40;95.50;;;;;;5097680;28;20331;-81
2021/06/23 08:17:54;;;;;;;19.10;10.33;;;14.50;95.10;;;;;;5100001;28;20182;-81
2021/06/23 08:20:20;;;;;;;20.23;10.33;;;14.60;94.20;;;;;;5097338;28;20747;-80
2021/06/23 08:22:45;;;;;;;19.43;9.93;;;14.60;93.60;;;;;;5100192;28;20211;-83
2021/06/23 08:25:12;;;;;;;24.27;11.00;;;14.60;93.20;;;;;;5119754;28;20583;-80
2021/06/23 08:27:39;;;;;;;17.73;10.23;;;14.60;93.00;;;;;;5117341;28;20183;-79
2021/06/23 08:30:06;;;;;;;18.33;10.50;;;14.60;93.40;;;;;;5117384;28;20171;-79
2021/06/23 08:32:34;;;;;;;13.63;9.53;;;14.60;92.70;;;;;;5121412;28;20170;-84
2021/06/23 08:34:59;;;;;;;12.57;7.93;;;14.70;92.90;;;;;;5118364;28;20166;-83
2021/06/23 08:37:25;;;;;;;15.70;8.47;;;15.00;91.60;;;;;;5116407;28;20323;-85
2021/06/23 08:39:51;;;;;;;16.30;8.63;;;14.80;91.70;;;;;;5098534;28;20574;-84
2021/06/23 08:42:26;;;;;;;16.07;8.63;;;15.20;93.60;;;;;;5099252;28;20200;-86
2021/06/23 08:44:52;;;;;;;20.40;9.17;;;15.30;90.90;;;;;;5082034;28;20230;-87
2021/06/23 08:47:18;;;;;;;15.40;8.47;;;15.50;92.30;;;;;;5096353;28;20257;-83
2021/06/23 08:49:46;;;;;;;15.23;8.03;;;15.50;90.30;;;;;;5099684;28;20533;-83
2021/06/23 08:52:12;;;;;;;12.03;7.53;;;15.70;89.30;;;;;;5103978;28;20184;-81
2021/06/23 08:54:39;;;;;;;15.07;8.13;;;15.90;88.20;;;;;;5095680;28;20175;-77
2021/06/23 08:57:06;;;;;;;14.90;8.60;;;15.90;84.30;;;;;;5096453;28;20174;-84
2021/06/23 08:59:31;;;;;;;23.70;9.70;;;15.80;85.50;;;;;;5098357;28;20179;-83
2021/06/23 09:01:57;;;;;;;11.80;8.83;;;15.90;88.90;;;;;;5097682;28;20189;-84
2021/06/23 09:04:26;;;;;;;15.07;9.10;;;15.80;85.90;;;;;;5098063;28;20176;-83
2021/06/23 09:06:58;;;;;;;14.07;9.63;;;15.70;88.20;;;;;;5098966;28;20168;-82
2021/06/23 09:09:35;;;;;;;15.40;9.10;;;15.50;90.00;;;;;;5097044;28;20182;-90
2021/06/23 09:12:04;;;;;;;14.97;10.10;;;15.40;89.70;;;;;;5096233;28;20529;-81
2021/06/23 09:14:36;;;;;;;16.67;10.50;;;15.40;90.40;;;;;;5096283;28;20177;-82
2021/06/23 09:17:10;;;;;;;16.30;10.47;;;15.30;91.10;;;;;;5095915;28;20176;-82
2021/06/23 09:19:44;;;;;;;14.17;10.50;;;15.10;91.30;;;;;;5095927;28;20269;-80
2021/06/23 09:22:28;;;;;;;16.17;9.97;;;15.40;92.20;;;;;;5103810;28;20535;-80
2021/06/23 09:24:56;;;;;;;14.07;9.97;;;15.30;90.30;;;;;;5095235;28;20212;-83
2021/06/23 09:27:24;;;;;;;13.97;9.53;;;15.20;90.80;;;;;;5096211;28;20204;-83
2021/06/23 09:29:51;;;;;;;12.93;10.00;;;15.30;91.40;;;;;;5111428;28;20193;-81
2021/06/23 09:32:20;;;;;;;15.60;10.03;;;15.30;90.70;;;;;;5094731;28;20187;-82
2021/06/23 09:34:50;;;;;;;16.37;10.67;;;15.20;89.30;;;;;;5095983;28;20624;-82
2021/06/23 09:37:32;;;;;;;15.00;9.17;;;15.30;90.50;;;;;;5103106;28;20174;-83
2021/06/23 09:40:18;;;;;;;14.30;8.73;;;15.40;87.20;;;;;;5116588;28;20164;-82
2021/06/23 09:42:46;;;;;;;13.03;8.10;;;15.40;85.80;;;;;;5116333;28;20726;-82
2021/06/23 09:45:14;;;;;;;14.33;8.90;;;15.50;85.50;;;;;;5118006;28;20160;-81
2021/06/23 09:47:40;;;;;;;12.90;8.97;;;15.50;84.00;;;;;;5116322;28;20288;-81
2021/06/23 09:50:08;;;;;;;17.33;9.27;;;15.60;82.50;;;;;;5107284;28;20183;-82
2021/06/23 09:53:01;;;;;;;13.50;8.60;;;15.60;82.10;;;;;;5099053;28;20562;-82
2021/06/23 09:55:38;;;;;;;13.27;8.63;;;15.70;78.30;;;;;;5120306;28;20207;-80
2021/06/23 09:58:19;;;;;;;13.27;8.53;;;15.70;79.40;;;;;;5097023;28;20167;-81
2021/06/23 10:01:03;;;;;;;13.83;8.67;;;15.70;78.60;;;;;;5097251;28;20171;-81
2021/06/23 10:03:50;;;;;;;14.17;9.47;;;15.50;81.50;;;;;;5095644;28;20215;-82
2021/06/23 10:06:23;;;;;;;14.77;9.70;;;15.50;81.10;;;;;;5097284;28;20173;-83
2021/06/23 10:08:49;;;;;;;15.27;8.33;;;15.50;83.00;;;;;;5097800;28;20244;-79
2021/06/23 10:11:27;;;;;;;12.70;8.57;;;15.50;82.10;;;;;;5100076;28;20184;-85
2021/06/23 10:13:53;;;;;;;15.50;9.43;;;15.40;83.20;;;;;;5102987;28;20164;-81
2021/06/23 10:16:21;;;;;;;16.13;9.80;;;15.30;82.80;;;;;;5122222;28;20208;-79
2021/06/23 10:18:50;;;;;;;12.07;9.17;;;15.20;85.30;;;;;;5128200;28;20168;-79
2021/06/23 10:21:16;;;;;;;16.03;9.97;;;15.20;85.90;;;;;;5131399;28;20198;-81
2021/06/23 10:23:41;;;;;;;16.27;8.87;;;15.30;86.60;;;;;;5137304;28;20224;-81
2021/06/23 10:26:09;;;;;;;17.57;9.60;;;15.40;82.30;;;;;;5137136;28;20186;-79
2021/06/23 10:28:41;;;;;;;16.90;9.37;;;15.50;81.50;;;;;;5136885;28;20230;-82
2021/06/23 10:31:09;;;;;;;13.73;8.87;;;15.60;80.70;;;;;;5126137;28;20177;-85
2021/06/23 10:33:39;;;;;;;15.93;9.13;;;15.70;80.20;;;;;;5115042;28;20176;-82
2021/06/23 10:36:07;;;;;;;14.17;10.07;;;15.70;78.00;;;;;;5114272;28;20160;-80
2021/06/23 10:39:19;;;;;;;19.17;9.90;;;15.60;77.50;;;;;;5108795;28;20170;-81
2021/06/23 10:42:08;;;;;;;15.30;9.93;;;15.80;80.80;;;;;;5109369;28;20159;-82
2021/06/23 10:44:37;;;;;;;13.37;9.80;;;15.90;77.20;;;;;;5101347;28;20160;-82
2021/06/23 10:47:26;;;;;;;15.20;10.07;;;15.90;77.20;;;;;;5096774;28;20555;-82
2021/06/23 10:49:57;;;;;;;15.17;9.77;;;15.90;74.40;;;;;;5097791;28;20187;-82
2021/06/23 10:52:24;;;;;;;15.47;9.73;;;16.00;76.70;;;;;;5098194;28;20204;-84
2021/06/23 10:54:50;;;;;;;13.23;9.77;;;16.20;76.50;;;;;;5096724;28;20266;-84
2021/06/23 10:57:38;;;;;;;14.13;10.07;;;16.10;72.20;;;;;;5095541;28;20172;-83
2021/06/23 11:00:10;;;;;;;16.43;10.70;;;16.10;72.70;;;;;;5098838;28;20178;-82
2021/06/23 11:02:39;;;;;;;12.30;9.50;;;16.30;71.60;;;;;;5096596;28;20213;-82
2021/06/23 11:05:11;;;;;;;20.87;10.43;;;16.50;71.90;;;;;;5095798;28;20167;-83
2021/06/23 11:08:09;;;;;;;13.37;9.60;;;16.70;66.30;;;;;;5100126;28;20168;-82
2021/06/23 11:10:40;;;;;;;14.40;9.73;;;16.40;64.60;;;;;;5097540;28;20172;-83
2021/06/23 11:13:15;;;;;;;17.80;11.57;;;16.20;66.00;;;;;;5095560;28;20192;-81
2021/06/23 11:15:45;;;;;;;16.53;11.40;;;16.20;68.10;;;;;;5095019;28;20199;-82
2021/06/23 11:18:34;;;;;;;13.03;10.33;;;16.00;70.40;;;;;;5095460;28;20179;-82
2021/06/23 11:21:06;;;;;;;14.07;11.20;;;15.90;72.70;;;;;;5096869;28;20190;-83
2021/06/23 11:23:59;;;;;;;14.23;11.90;;;15.90;74.00;;;;;;5089090;28;20267;-82
2021/06/23 11:26:25;;;;;;;13.40;11.40;;;16.00;74.10;;;;;;5076078;28;20180;-82
2021/06/23 11:29:17;;;;;;;15.90;11.93;;;16.10;73.10;;;;;;5082533;28;20580;-82
2021/06/23 11:31:58;;;;;;;17.10;13.03;;;16.10;73.60;;;;;;5093443;28;20185;-82
2021/06/23 11:34:39;;;;;;;16.67;11.07;;;16.30;72.80;;;;;;5101115;28;20167;-83
2021/06/23 11:37:08;;;;;;;15.20;11.97;;;16.30;68.90;;;;;;5097333;28;20533;-82
2021/06/23 11:39:35;;;;;;;19.80;11.60;;;16.30;68.40;;;;;;5101127;28;20163;-82
2021/06/23 11:42:05;;;;;;;14.10;12.33;;;16.30;70.60;;;;;;5101475;28;20700;-82
2021/06/23 11:44:33;;;;;;;16.70;11.57;;;16.30;67.60;;;;;;5105535;28;21113;-83
2021/06/23 11:47:16;;;;;;;15.60;11.37;;;16.30;66.50;;;;;;5107433;28;20201;-81
2021/06/23 11:49:44;;;;;;;13.20;10.83;;;16.40;65.30;;;;;;5108767;28;20183;-80
2021/06/23 11:52:10;;;;;;;20.27;12.27;;;16.50;69.90;;;;;;5110043;28;20213;-83
2021/06/23 11:54:36;;;;;;;15.43;12.03;;;16.60;66.10;;;;;;5110769;28;20187;-84
2021/06/23 11:57:03;;;;;;;17.80;11.53;;;16.80;62.90;;;;;;5108893;28;20218;-82
2021/06/23 11:59:29;;;;;;;16.53;12.10;;;16.70;59.00;;;;;;5105251;28;20171;-80
2021/06/23 12:01:55;;;;;;;13.93;11.50;;;16.50;62.20;;;;;;5112556;28;20174;-83
2021/06/23 12:04:22;;;;;;;19.13;11.37;;;16.80;65.80;;;;;;5106242;28;20233;-80
2021/06/23 12:06:48;;;;;;;14.17;12.27;;;17.00;60.90;;;;;;5104088;28;20167;-82
2021/06/23 12:09:13;;;;;;;14.43;11.60;;;17.10;56.40;;;;;;5105319;28;20199;-82
2021/06/23 12:11:40;;;;;;;15.90;12.00;;;17.00;56.20;;;;;;5105881;27;20923;-83
2021/06/23 12:14:07;;;;;;;17.90;12.77;;;16.90;56.10;;;;;;5104514;28;20217;-81
2021/06/23 12:16:33;;;;;;;12.93;11.50;;;17.10;59.60;;;;;;5104017;28;20193;-82
2021/06/23 12:19:01;;;;;;;15.57;11.43;;;17.20;57.00;;;;;;5103530;28;20179;-84
2021/06/23 12:21:29;;;;;;;14.77;11.63;;;17.40;55.50;;;;;;5102045;28;20635;-84
2021/06/23 12:23:55;;;;;;;14.53;11.43;;;17.20;56.20;;;;;;5105789;28;20211;-81
2021/06/23 12:26:23;;;;;;;17.17;13.13;;;17.30;60.00;;;;;;5104302;28;20618;-81
2021/06/23 12:28:50;;;;;;;12.90;11.60;;;17.40;53.50;;;;;;5106032;28;20164;-82
2021/06/23 12:31:16;;;;;;;16.83;13.00;;;17.50;52.00;;;;;;5103114;28;20187;-82
2021/06/23 12:33:44;;;;;;;17.03;13.80;;;17.50;49.00;;;;;;5103871;28;20171;-80
2021/06/23 12:36:09;;;;;;;15.00;13.03;;;17.40;51.00;;;;;;5103265;28;20172;-82
2021/06/23 12:38:35;;;;;;;16.73;13.13;;;17.40;50.90;;;;;;5104721;28;20335;-82
2021/06/23 12:41:00;;;;;;;15.27;12.77;;;17.60;54.50;;;;;;5104621;28;20532;-79
2021/06/23 12:43:26;;;;;;;20.00;12.87;;;17.60;48.40;;;;;;5108013;28;20204;-82
2021/06/23 12:45:52;;;;;;;16.43;13.23;;;17.50;50.70;;;;;;5111011;28;20171;-81
2021/06/23 12:48:18;;;;;;;15.43;13.00;;;17.40;50.50;;;;;;5110207;28;20263;-79
2021/06/23 12:50:50;;;;;;;17.80;13.20;;;17.30;57.70;;;;;;5094107;28;20199;-82
2021/06/23 12:53:16;;;;;;;19.60;13.33;;;17.40;55.30;;;;;;5106330;28;20171;-81
2021/06/23 12:55:42;;;;;;;16.60;13.50;;;17.50;54.20;;;;;;5102982;28;20258;-84
2021/06/23 12:58:08;;;;;;;18.93;14.30;;;17.40;50.30;;;;;;5101032;28;20578;-81